Time;durP1;ratioP1;P1;durP2;ratioP2;P2;SDS_P1;SDS_P2;PMS_P1;PMS_P2;Temp;Humidity;BMP_temperature;BMP_pressure;BME280_temperature;BME280_humidity;BME280_pressure;Samples;Min_cycle;Max_cycle;Signal;HPM_P1;HPM_P2
2022/01/17 00:00:56;;;;;;;12.95;0.90;;;6.50;99.90;;;;;;5074925;28;20052;-79
2022/01/17 00:03:24;;;;;;;7.38;0.55;;;6.50;99.90;;;;;;5058312;28;20048;-78
2022/01/17 00:05:53;;;;;;;7.57;0.82;;;6.50;99.90;;;;;;5058476;28;20036;-78
2022/01/17 00:08:19;;;;;;;15.05;0.70;;;6.50;99.90;;;;;;5074731;28;20095;-79
2022/01/17 00:10:46;;;;;;;7.90;0.90;;;6.50;99.90;;;;;;5055052;28;20486;-78
2022/01/17 00:13:21;;;;;;;9.52;0.70;;;6.40;99.90;;;;;;5075308;28;20492;-75
2022/01/17 00:15:51;;;;;;;7.07;0.70;;;6.40;99.90;;;;;;5074232;28;20051;-69
2022/01/17 00:20:45;;;;;;;12.05;1.13;;;6.30;99.90;;;;;;5075049;28;20047;-77
2022/01/17 00:23:12;;;;;;;10.30;0.85;;;6.30;99.80;;;;;;5045549;28;20082;-77
2022/01/17 00:25:37;;;;;;;13.38;1.00;;;6.30;99.60;;;;;;5047028;28;20516;-70
2022/01/17 00:28:04;;;;;;;12.07;0.65;;;6.20;99.30;;;;;;5075439;28;20105;-77
2022/01/17 00:30:30;;;;;;;7.78;0.43;;;6.20;99.10;;;;;;5057379;28;20052;-81
2022/01/17 00:32:55;;;;;;;9.55;0.70;;;6.20;98.90;;;;;;5044752;28;20044;-81
2022/01/17 00:35:21;;;;;;;8.65;1.05;;;6.20;98.80;;;;;;5058213;28;20044;-80
2022/01/17 00:37:48;;;;;;;10.07;0.80;;;6.20;98.70;;;;;;5041520;28;20032;-80
2022/01/17 00:40:14;;;;;;;9.00;1.05;;;6.10;98.40;;;;;;5058444;28;20047;-81
2022/01/17 00:42:40;;;;;;;9.43;0.60;;;6.10;98.30;;;;;;5073993;28;20044;-81
2022/01/17 00:45:07;;;;;;;7.72;0.70;;;6.10;98.50;;;;;;5075490;28;20052;-69
2022/01/17 00:47:34;;;;;;;9.52;0.75;;;6.10;98.50;;;;;;5070864;28;20517;-68
2022/01/17 00:49:59;;;;;;;8.43;0.65;;;6.10;98.50;;;;;;5054156;28;20049;-79
2022/01/17 00:52:25;;;;;;;11.20;0.82;;;6.10;98.50;;;;;;5054560;28;20112;-79
2022/01/17 00:54:51;;;;;;;11.38;0.85;;;6.00;98.50;;;;;;5070893;28;20044;-81
2022/01/17 00:57:17;;;;;;;11.50;1.02;;;6.00;98.70;;;;;;5070331;28;20032;-73
2022/01/17 00:59:43;;;;;;;6.43;1.35;;;6.00;98.80;;;;;;5071005;28;20052;-74
2022/01/17 01:02:08;;;;;;;8.05;0.43;;;6.00;98.90;;;;;;5048622;28;20400;-74
2022/01/17 01:04:34;;;;;;;10.25;1.05;;;6.00;98.90;;;;;;5070622;28;20153;-77
2022/01/17 01:07:00;;;;;;;12.18;0.93;;;6.00;98.90;;;;;;5053985;28;20086;-76
2022/01/17 01:09:29;;;;;;;13.25;0.93;;;6.00;98.90;;;;;;5070749;28;20127;-76
2022/01/17 01:11:55;;;;;;;7.50;0.88;;;6.00;99.00;;;;;;5069827;28;20041;-72
2022/01/17 01:14:20;;;;;;;9.20;0.55;;;5.90;99.00;;;;;;5047638;28;20182;-76
2022/01/17 01:16:46;;;;;;;8.95;0.52;;;5.90;99.00;;;;;;5070682;28;20052;-72
2022/01/17 01:27:42;;;;;;;12.02;0.75;;;5.70;99.20;;;;;;5070027;28;20053;-77
2022/01/17 01:29:59;;;;;;;10.40;0.68;;;5.60;99.30;;;;;;5070456;28;20048;-72
2022/01/17 01:32:32;;;;;;;11.23;1.10;;;5.60;99.40;;;;;;5069760;28;20093;-79
2022/01/17 01:34:59;;;;;;;10.40;1.02;;;5.50;99.40;;;;;;5070372;28;20158;-81
2022/01/17 01:37:25;;;;;;;9.55;0.68;;;5.50;99.60;;;;;;5070507;28;20099;-81
2022/01/17 01:39:53;;;;;;;17.85;1.40;;;5.50;99.60;;;;;;5069728;28;20509;-82
2022/01/17 01:42:20;;;;;;;10.82;0.82;;;5.50;99.60;;;;;;5070144;28;20822;-86
2022/01/17 01:44:50;;;;;;;20.35;1.10;;;5.50;99.70;;;;;;5070017;28;20123;-70
2022/01/17 01:47:16;;;;;;;9.57;0.65;;;5.50;99.70;;;;;;5069327;28;20049;-83
2022/01/17 01:49:41;;;;;;;7.88;0.70;;;5.40;99.70;;;;;;5053411;28;20052;-84
2022/01/17 01:52:07;;;;;;;12.23;1.27;;;5.40;99.80;;;;;;5070009;28;20047;-70
2022/01/17 01:54:32;;;;;;;13.07;0.82;;;5.40;99.80;;;;;;5070406;28;20048;-86
2022/01/17 01:56:58;;;;;;;9.35;1.35;;;5.40;99.80;;;;;;5070272;28;20052;-70
2022/01/17 01:59:24;;;;;;;11.93;1.10;;;5.40;99.70;;;;;;5070154;28;20056;-83
2022/01/17 02:01:51;;;;;;;13.93;0.90;;;5.40;99.70;;;;;;5052122;28;20040;-84
2022/01/17 02:04:17;;;;;;;12.48;0.70;;;5.40;99.80;;;;;;5069300;28;20135;-70
2022/01/17 02:06:43;;;;;;;12.77;1.30;;;5.30;99.80;;;;;;5069800;28;20119;-82
2022/01/17 02:09:09;;;;;;;12.65;0.63;;;5.40;99.80;;;;;;5039076;28;20049;-73
2022/01/17 02:11:36;;;;;;;12.00;1.48;;;5.40;99.90;;;;;;5057077;28;20534;-79
2022/01/17 02:14:03;;;;;;;10.35;1.20;;;5.30;99.90;;;;;;5047950;28;20041;-79
2022/01/17 02:16:30;;;;;;;10.63;0.77;;;5.30;99.90;;;;;;5047867;28;20552;-77
2022/01/17 02:18:55;;;;;;;8.50;0.82;;;5.30;99.90;;;;;;5060647;28;20045;-75
2022/01/17 02:24:00;;;;;;;7.80;0.60;;;5.30;99.90;;;;;;5069190;28;20048;-71
2022/01/17 02:26:27;;;;;;;12.65;1.25;;;5.30;99.90;;;;;;5069580;28;20037;-73
2022/01/17 02:28:55;;;;;;;11.20;0.90;;;5.20;99.90;;;;;;5068113;28;20500;-79
2022/01/17 02:31:22;;;;;;;12.32;1.00;;;5.20;99.90;;;;;;5069455;28;20127;-77
2022/01/17 02:33:50;;;;;;;19.10;1.13;;;5.20;99.90;;;;;;5052425;28;20134;-73
2022/01/17 02:36:16;;;;;;;15.43;0.70;;;5.10;99.90;;;;;;5068943;28;20139;-72
2022/01/17 02:38:41;;;;;;;9.63;0.68;;;5.10;99.90;;;;;;5069385;28;20128;-79
2022/01/17 02:41:07;;;;;;;10.13;1.00;;;5.00;99.90;;;;;;5069795;28;20409;-79
2022/01/17 02:43:34;;;;;;;14.55;0.70;;;5.00;99.90;;;;;;5068458;28;20070;-79
2022/01/17 02:48:30;;;;;;;14.13;1.38;;;5.00;99.90;;;;;;5069442;28;20055;-70
2022/01/17 02:50:58;;;;;;;9.45;0.90;;;5.00;99.90;;;;;;5068406;28;20049;-70
2022/01/17 02:53:24;;;;;;;15.70;0.98;;;5.00;99.90;;;;;;5052343;28;20473;-79
2022/01/17 02:55:53;;;;;;;13.38;1.33;;;4.90;99.90;;;;;;5070104;28;20044;-79
2022/01/17 02:58:20;;;;;;;9.07;0.75;;;4.90;99.90;;;;;;5068877;28;20036;-78
2022/01/17 03:00:48;;;;;;;7.10;0.98;;;4.90;99.90;;;;;;5068715;28;20119;-78
2022/01/17 03:03:18;;;;;;;12.35;0.70;;;4.90;99.90;;;;;;5069428;28;20540;-78
2022/01/17 03:05:44;;;;;;;8.30;1.30;;;4.80;99.90;;;;;;5068973;28;20049;-78
2022/01/17 03:08:11;;;;;;;12.27;0.70;;;4.80;99.90;;;;;;5069305;28;20139;-83
2022/01/17 03:10:40;;;;;;;7.68;0.80;;;4.80;99.90;;;;;;5051737;28;20049;-79
2022/01/17 03:13:07;;;;;;;11.15;1.27;;;4.80;99.90;;;;;;5069409;28;20060;-79
2022/01/17 03:15:33;;;;;;;12.50;0.80;;;4.80;99.90;;;;;;5052058;28;20140;-80
2022/01/17 03:17:59;;;;;;;12.07;0.95;;;4.80;99.90;;;;;;5068533;28;20511;-79
2022/01/17 03:20:25;;;;;;;10.80;0.80;;;4.70;99.90;;;;;;5052134;28;20049;-80
2022/01/17 03:22:51;;;;;;;14.77;1.02;;;4.70;99.90;;;;;;5052277;28;20101;-80
2022/01/17 03:25:17;;;;;;;12.57;1.08;;;4.70;99.90;;;;;;5068163;28;20404;-75
2022/01/17 03:27:42;;;;;;;12.82;0.98;;;4.80;99.90;;;;;;5069298;28;20041;-81
2022/01/17 03:30:10;;;;;;;14.35;1.15;;;4.70;99.90;;;;;;5051109;28;20044;-79
2022/01/17 03:32:36;;;;;;;13.10;0.90;;;4.70;99.90;;;;;;5068958;28;20060;-72
2022/01/17 03:35:02;;;;;;;10.10;0.70;;;4.70;99.90;;;;;;5068841;28;20048;-83
2022/01/17 03:37:27;;;;;;;9.32;0.60;;;4.70;99.90;;;;;;5069087;28;20045;-79
2022/01/17 03:39:54;;;;;;;8.75;0.90;;;4.80;99.90;;;;;;5054973;28;20123;-80
2022/01/17 03:42:19;;;;;;;13.25;1.17;;;4.80;99.90;;;;;;5072924;28;20048;-80
2022/01/17 03:44:46;;;;;;;12.20;0.95;;;4.90;99.90;;;;;;5073429;28;20060;-81
2022/01/17 03:47:12;;;;;;;11.32;0.95;;;5.00;99.90;;;;;;5054893;28;20131;-81
2022/01/17 03:49:38;;;;;;;11.40;0.85;;;4.90;99.90;;;;;;5072392;28;20433;-72
2022/01/17 03:52:05;;;;;;;10.02;0.75;;;5.00;99.90;;;;;;5072892;28;20136;-76
2022/01/17 03:54:31;;;;;;;10.32;1.02;;;5.00;99.90;;;;;;5071525;28;20046;-79
2022/01/17 03:56:58;;;;;;;15.98;1.17;;;5.10;99.90;;;;;;5071834;28;20040;-71
2022/01/17 03:59:24;;;;;;;12.30;0.93;;;5.10;99.90;;;;;;5072295;28;20102;-78
2022/01/17 04:01:49;;;;;;;13.93;0.80;;;5.10;99.90;;;;;;5048543;28;20037;-78
2022/01/17 04:04:15;;;;;;;12.32;0.80;;;5.10;99.90;;;;;;5068506;28;20449;-78
2022/01/17 04:06:42;;;;;;;11.40;1.25;;;5.10;99.90;;;;;;5071069;28;20489;-79
2022/01/17 04:09:07;;;;;;;11.82;0.80;;;5.20;99.90;;;;;;5072904;28;20040;-70
2022/01/17 04:11:33;;;;;;;7.55;0.40;;;5.20;99.90;;;;;;5071376;28;20047;-79
2022/01/17 04:13:59;;;;;;;9.07;0.85;;;5.20;99.90;;;;;;5071262;28;20041;-81
2022/01/17 04:16:24;;;;;;;9.60;0.80;;;5.20;99.90;;;;;;5071839;28;20044;-80
2022/01/17 04:18:50;;;;;;;12.55;0.88;;;5.20;99.90;;;;;;5071753;28;20037;-77
2022/01/17 04:21:15;;;;;;;10.55;0.70;;;5.20;99.90;;;;;;5071550;28;20063;-73
2022/01/17 04:23:41;;;;;;;13.35;0.98;;;5.10;99.90;;;;;;5071223;28;20141;-77
2022/01/17 04:26:07;;;;;;;9.40;0.88;;;5.10;99.90;;;;;;5072061;28;20047;-78
2022/01/17 04:28:32;;;;;;;11.43;1.08;;;5.10;99.90;;;;;;5070955;28;20048;-79
2022/01/17 04:30:59;;;;;;;10.50;0.80;;;5.10;99.90;;;;;;5055294;28;20421;-78
2022/01/17 04:33:25;;;;;;;10.73;0.93;;;5.10;99.90;;;;;;5054455;28;20403;-79
2022/01/17 04:35:50;;;;;;;10.57;0.55;;;5.00;99.90;;;;;;5070775;28;20036;-78
2022/01/17 04:38:18;;;;;;;15.95;1.15;;;5.10;99.90;;;;;;5071077;28;20040;-72
2022/01/17 04:40:46;;;;;;;13.23;0.65;;;5.00;99.90;;;;;;5072023;28;20045;-79
2022/01/17 04:43:20;;;;;;;11.05;0.88;;;5.10;99.90;;;;;;5048504;28;20043;-79
2022/01/17 04:45:49;;;;;;;9.50;0.73;;;5.10;99.90;;;;;;5071164;28;20519;-73
2022/01/17 04:48:14;;;;;;;10.82;0.90;;;5.20;99.90;;;;;;5071157;28;20140;-79
2022/01/17 04:50:41;;;;;;;13.30;0.85;;;5.20;99.90;;;;;;5047611;28;20123;-79
2022/01/17 04:53:07;;;;;;;12.68;0.68;;;5.30;99.90;;;;;;5066469;28;20044;-77
2022/01/17 04:55:34;;;;;;;8.43;0.77;;;5.30;99.90;;;;;;5070992;28;20549;-78
2022/01/17 04:57:59;;;;;;;8.30;0.98;;;5.40;99.90;;;;;;5070343;28;20420;-74
2022/01/17 05:00:26;;;;;;;14.98;1.20;;;5.30;99.90;;;;;;5070985;28;20048;-77
2022/01/17 05:02:53;;;;;;;7.75;0.75;;;5.40;99.90;;;;;;5069828;28;20128;-79
2022/01/17 05:05:22;;;;;;;12.20;1.13;;;5.40;99.90;;;;;;5071997;28;20036;-80
2022/01/17 05:07:48;;;;;;;11.73;0.85;;;5.50;99.90;;;;;;5071014;28;20048;-72
2022/01/17 05:10:15;;;;;;;12.68;1.05;;;5.60;99.90;;;;;;5049559;28;20045;-80
2022/01/17 05:12:42;;;;;;;12.95;1.63;;;5.60;99.90;;;;;;5070063;28;20127;-81
2022/01/17 05:15:19;;;;;;;10.80;1.13;;;5.70;99.90;;;;;;5071281;28;20409;-79
2022/01/17 05:17:57;;;;;;;10.60;1.10;;;5.70;99.90;;;;;;5069728;28;20044;-80
2022/01/17 05:20:23;;;;;;;12.77;1.15;;;5.70;99.90;;;;;;5070920;28;20505;-79
2022/01/17 05:22:49;;;;;;;11.40;1.15;;;5.80;99.90;;;;;;5070215;28;20083;-79
2022/01/17 05:25:15;;;;;;;15.82;1.05;;;5.80;99.90;;;;;;5071267;28;20076;-80
2022/01/17 05:27:41;;;;;;;12.73;1.25;;;5.80;99.90;;;;;;5069598;28;20087;-78
2022/01/17 05:30:13;;;;;;;11.98;1.55;;;5.80;99.90;;;;;;5071046;28;20049;-73
2022/01/17 05:32:39;;;;;;;11.35;1.80;;;5.90;99.90;;;;;;5069780;28;20542;-80
2022/01/17 05:35:06;;;;;;;10.75;1.45;;;6.00;99.90;;;;;;5071123;28;20044;-81
2022/01/17 05:37:32;;;;;;;9.45;1.27;;;6.00;99.90;;;;;;5069857;28;20131;-83
2022/01/17 05:39:58;;;;;;;11.07;2.15;;;6.00;99.90;;;;;;5053043;28;20044;-81
2022/01/17 05:42:24;;;;;;;10.57;2.00;;;6.00;99.90;;;;;;5070359;28;20037;-70
2022/01/17 05:44:50;;;;;;;15.18;1.90;;;6.00;99.90;;;;;;5035204;28;20413;-80
2022/01/17 05:47:16;;;;;;;12.45;3.03;;;6.00;99.90;;;;;;5063689;28;20052;-72
2022/01/17 05:49:42;;;;;;;11.63;1.80;;;6.00;99.90;;;;;;5069956;28;20055;-80
2022/01/17 05:52:09;;;;;;;9.18;2.03;;;6.00;99.90;;;;;;5053401;28;20043;-80
2022/01/17 05:54:35;;;;;;;12.45;3.15;;;6.10;99.90;;;;;;5069442;28;20500;-80
2022/01/17 05:57:01;;;;;;;13.32;2.40;;;6.10;99.90;;;;;;5053638;28;20467;-80
2022/01/17 05:59:27;;;;;;;15.52;2.63;;;6.10;99.90;;;;;;5051915;28;20198;-81
2022/01/17 06:01:53;;;;;;;15.27;3.00;;;6.10;99.90;;;;;;5069574;28;20119;-84
2022/01/17 06:04:19;;;;;;;12.18;3.22;;;6.10;99.90;;;;;;5053023;28;20044;-82
2022/01/17 06:06:45;;;;;;;11.50;3.70;;;6.10;99.90;;;;;;5069130;28;20045;-75
2022/01/17 06:09:10;;;;;;;14.43;3.95;;;6.10;99.90;;;;;;5069901;28;20049;-82
2022/01/17 06:11:36;;;;;;;20.27;5.38;;;6.10;99.90;;;;;;5069986;28;20488;-80
2022/01/17 06:14:02;;;;;;;13.45;4.18;;;6.20;99.90;;;;;;5068922;28;20409;-81
2022/01/17 06:16:30;;;;;;;16.30;5.10;;;6.20;99.90;;;;;;5069703;28;20040;-79
2022/01/17 06:18:56;;;;;;;14.57;5.15;;;6.20;99.90;;;;;;5049006;28;20047;-75
2022/01/17 06:21:22;;;;;;;17.77;5.07;;;6.20;99.90;;;;;;5069078;28;20040;-73
2022/01/17 06:23:48;;;;;;;16.85;4.95;;;6.20;99.90;;;;;;5069734;28;20090;-71
2022/01/17 06:26:13;;;;;;;17.08;5.15;;;6.30;99.90;;;;;;5069771;28;20101;-79
2022/01/17 06:28:39;;;;;;;15.52;5.70;;;6.20;99.90;;;;;;5068657;28;20044;-82
2022/01/17 06:31:05;;;;;;;14.25;5.35;;;6.20;99.90;;;;;;5069815;28;20444;-79
2022/01/17 06:33:30;;;;;;;14.93;5.10;;;6.30;99.90;;;;;;5052641;28;20086;-81
2022/01/17 06:35:56;;;;;;;18.83;5.72;;;6.30;99.90;;;;;;5052071;28;20127;-73
2022/01/17 06:38:22;;;;;;;17.88;5.45;;;6.30;99.90;;;;;;5052176;28;20035;-80
2022/01/17 06:40:47;;;;;;;19.75;6.22;;;6.30;99.90;;;;;;5069818;28;20408;-76
2022/01/17 06:43:13;;;;;;;12.98;6.05;;;6.30;99.90;;;;;;5068701;28;20047;-81
2022/01/17 06:45:39;;;;;;;19.05;5.15;;;6.30;99.90;;;;;;5068730;28;20041;-81
2022/01/17 06:48:06;;;;;;;21.92;5.30;;;6.20;99.90;;;;;;5052482;28;20040;-81
2022/01/17 06:50:35;;;;;;;22.58;6.78;;;6.20;99.90;;;;;;5052237;28;20530;-84
2022/01/17 06:53:00;;;;;;;17.02;5.38;;;6.10;99.90;;;;;;5068708;28;20072;-83
2022/01/17 06:55:26;;;;;;;16.83;5.18;;;6.20;99.90;;;;;;5052236;28;20079;-84
2022/01/17 06:57:52;;;;;;;12.63;4.78;;;6.10;99.90;;;;;;5052156;28;20040;-82
2022/01/17 07:00:18;;;;;;;17.77;6.28;;;6.10;99.90;;;;;;5069502;28;20049;-84
2022/01/17 07:02:43;;;;;;;22.38;6.20;;;6.10;99.90;;;;;;5068660;28;20040;-81
2022/01/17 07:05:09;;;;;;;16.95;4.70;;;6.20;99.90;;;;;;5069397;28;20105;-83
2022/01/17 07:07:35;;;;;;;15.30;5.15;;;6.20;99.90;;;;;;5068824;28;20765;-84
2022/01/17 07:10:01;;;;;;;19.30;5.13;;;6.30;99.90;;;;;;5045610;28;20052;-83
2022/01/17 07:12:26;;;;;;;20.30;5.47;;;6.30;99.90;;;;;;5067360;28;20040;-71
2022/01/17 07:14:52;;;;;;;16.55;4.78;;;6.30;99.90;;;;;;5073097;28;20072;-74
2022/01/17 07:17:19;;;;;;;17.23;5.43;;;6.40;99.90;;;;;;5072373;28;20041;-83
2022/01/17 07:19:44;;;;;;;17.52;5.72;;;6.40;99.90;;;;;;5073108;28;20052;-81
2022/01/17 07:22:10;;;;;;;24.35;5.72;;;6.40;99.90;;;;;;5072552;28;20558;-82
2022/01/17 07:24:37;;;;;;;17.45;4.20;;;6.40;99.90;;;;;;5071697;28;20071;-70
2022/01/17 07:27:02;;;;;;;19.10;4.30;;;6.40;99.90;;;;;;5072039;28;20040;-79
2022/01/17 07:29:28;;;;;;;19.80;5.10;;;6.40;99.90;;;;;;5072572;28;20507;-80
2022/01/17 07:31:55;;;;;;;16.30;4.15;;;6.40;99.90;;;;;;5047057;28;20058;-81
2022/01/17 07:34:21;;;;;;;15.43;3.97;;;6.40;99.90;;;;;;5064878;28;20036;-84
2022/01/17 07:36:47;;;;;;;20.80;4.05;;;6.40;99.90;;;;;;5071970;28;20050;-81
2022/01/17 07:39:13;;;;;;;17.42;3.55;;;6.40;99.90;;;;;;5072555;28;20090;-78
2022/01/17 07:41:38;;;;;;;21.55;3.72;;;6.40;99.90;;;;;;5073752;28;20493;-78
2022/01/17 07:44:07;;;;;;;16.25;3.08;;;6.40;99.90;;;;;;5072541;28;20048;-72
2022/01/17 07:46:36;;;;;;;19.60;3.22;;;6.40;99.90;;;;;;5071770;28;20437;-78
2022/01/17 07:49:10;;;;;;;15.95;3.60;;;6.50;99.90;;;;;;5070352;28;20503;-81
2022/01/17 07:51:40;;;;;;;18.27;3.70;;;6.50;99.90;;;;;;5055383;28;20049;-76
2022/01/17 07:54:08;;;;;;;16.35;2.90;;;6.50;99.90;;;;;;5070046;28;20602;-77
2022/01/17 07:56:34;;;;;;;21.08;3.20;;;6.50;99.90;;;;;;5054749;28;20044;-69
2022/01/17 07:59:00;;;;;;;16.88;3.25;;;6.60;99.90;;;;;;5062695;28;20129;-75
2022/01/17 08:01:26;;;;;;;16.10;2.95;;;6.50;99.90;;;;;;5053591;28;20068;-78
2022/01/17 08:03:52;;;;;;;18.10;2.55;;;6.50;99.90;;;;;;5071746;28;20036;-72
2022/01/17 08:06:17;;;;;;;18.25;2.67;;;6.60;99.90;;;;;;5070648;28;20051;-78
2022/01/17 08:08:43;;;;;;;16.90;2.55;;;6.60;99.90;;;;;;5055548;28;20032;-79
2022/01/17 08:11:08;;;;;;;16.48;2.45;;;6.60;99.90;;;;;;5071880;28;20045;-81
2022/01/17 08:13:35;;;;;;;15.90;3.03;;;6.60;99.90;;;;;;5055019;28;20037;-81
2022/01/17 08:16:02;;;;;;;20.80;2.80;;;6.60;99.90;;;;;;5069980;28;20044;-79
2022/01/17 08:18:29;;;;;;;15.57;2.10;;;6.70;99.90;;;;;;5071620;28;20178;-71
2022/01/17 08:20:54;;;;;;;15.88;2.22;;;6.70;99.90;;;;;;5071682;28;20048;-80
2022/01/17 08:23:20;;;;;;;22.48;2.67;;;6.70;99.90;;;;;;5072131;28;20048;-77
2022/01/17 08:25:46;;;;;;;18.98;2.08;;;6.70;99.90;;;;;;5070347;28;20037;-73
2022/01/17 08:28:13;;;;;;;23.20;3.25;;;6.70;99.90;;;;;;5071059;28;20048;-70
2022/01/17 08:30:38;;;;;;;17.70;2.45;;;6.70;99.90;;;;;;5071075;28;20056;-79
2022/01/17 08:33:04;;;;;;;21.50;2.78;;;6.70;99.90;;;;;;5072217;28;20048;-79
2022/01/17 08:35:30;;;;;;;13.68;2.80;;;6.70;99.90;;;;;;5052655;28;20052;-76
2022/01/17 08:37:55;;;;;;;17.02;2.13;;;6.70;99.90;;;;;;5072043;28;20049;-80
2022/01/17 08:40:22;;;;;;;18.88;2.42;;;6.80;99.90;;;;;;5071351;28;20467;-79
2022/01/17 08:42:49;;;;;;;12.05;1.80;;;6.80;99.90;;;;;;5070676;28;20131;-70
2022/01/17 08:45:16;;;;;;;21.48;2.92;;;6.80;99.90;;;;;;5071542;28;20055;-79
2022/01/17 08:47:49;;;;;;;17.05;2.25;;;6.90;99.90;;;;;;5054610;28;20056;-80
2022/01/17 08:50:16;;;;;;;15.70;1.95;;;6.90;99.90;;;;;;5070635;28;20052;-80
2022/01/17 08:52:43;;;;;;;13.32;1.88;;;6.90;99.90;;;;;;5054869;28;20085;-80
2022/01/17 08:55:09;;;;;;;18.95;2.35;;;7.00;99.90;;;;;;5070892;28;20083;-76
2022/01/17 08:57:35;;;;;;;17.27;1.40;;;7.10;99.90;;;;;;5071832;28;20087;-76
2022/01/17 09:00:00;;;;;;;22.30;2.63;;;7.10;99.90;;;;;;5071102;28;20083;-81
2022/01/17 09:02:26;;;;;;;18.52;2.70;;;7.20;99.90;;;;;;5070935;28;20047;-71
2022/01/17 09:04:51;;;;;;;23.42;2.70;;;7.20;99.90;;;;;;5065954;28;20049;-79
2022/01/17 09:07:17;;;;;;;18.27;2.58;;;7.30;99.90;;;;;;5054412;28;20045;-70
2022/01/17 09:09:44;;;;;;;14.50;1.67;;;7.30;99.90;;;;;;5070238;28;20044;-80
2022/01/17 09:12:12;;;;;;;23.98;3.05;;;7.30;99.90;;;;;;5071145;28;20608;-79
2022/01/17 09:14:38;;;;;;;20.13;2.60;;;7.40;99.90;;;;;;5054813;28;20489;-71
2022/01/17 09:17:07;;;;;;;22.55;2.30;;;7.40;99.90;;;;;;5070842;28;20405;-77
2022/01/17 09:19:34;;;;;;;24.52;2.70;;;7.50;99.90;;;;;;5071077;28;20137;-79
2022/01/17 09:22:01;;;;;;;17.55;2.22;;;7.50;99.90;;;;;;5071273;28;20064;-79
2022/01/17 09:24:27;;;;;;;22.42;3.08;;;7.50;99.90;;;;;;5070349;28;20485;-70
2022/01/17 09:26:52;;;;;;;26.02;2.63;;;7.50;99.90;;;;;;5070928;28;20055;-79
2022/01/17 09:29:18;;;;;;;26.25;3.03;;;7.60;99.90;;;;;;5070722;28;20431;-70
2022/01/17 09:31:44;;;;;;;14.18;2.15;;;7.70;99.90;;;;;;5043333;28;20717;-79
2022/01/17 09:34:09;;;;;;;18.58;2.35;;;7.70;99.90;;;;;;5050829;28;20036;-71
2022/01/17 09:36:35;;;;;;;23.10;2.78;;;7.80;99.90;;;;;;5050405;28;20053;-79
2022/01/17 09:39:03;;;;;;;26.13;2.85;;;7.80;99.90;;;;;;5033334;28;20033;-79
2022/01/17 09:41:29;;;;;;;17.70;2.00;;;7.80;99.90;;;;;;5034280;28;20391;-71
2022/01/17 09:43:55;;;;;;;22.67;2.55;;;7.90;99.90;;;;;;5034145;28;20135;-80
2022/01/17 09:46:24;;;;;;;15.55;1.60;;;7.90;99.90;;;;;;5049941;28;20591;-77
2022/01/17 09:48:59;;;;;;;16.55;2.28;;;7.90;99.90;;;;;;5050365;28;20419;-76
2022/01/17 09:51:41;;;;;;;21.48;2.55;;;8.00;99.90;;;;;;5049831;28;20053;-79
2022/01/17 09:54:08;;;;;;;15.25;1.88;;;8.00;99.90;;;;;;5050838;28;20064;-71
2022/01/17 09:56:35;;;;;;;23.50;2.92;;;8.00;99.90;;;;;;5050083;28;20055;-70
2022/01/17 09:59:02;;;;;;;27.48;3.05;;;8.10;99.90;;;;;;5058041;28;20055;-78
2022/01/17 10:01:28;;;;;;;24.35;3.25;;;8.10;99.90;;;;;;5070303;28;20045;-71
2022/01/17 10:03:56;;;;;;;23.38;3.28;;;8.10;99.90;;;;;;5070258;28;20041;-80
2022/01/17 10:06:24;;;;;;;21.52;2.85;;;8.10;99.90;;;;;;5052837;28;20154;-79
2022/01/17 10:09:09;;;;;;;22.02;2.58;;;8.10;99.90;;;;;;5069861;28;20064;-72
2022/01/17 10:11:34;;;;;;;18.55;2.42;;;8.20;99.90;;;;;;5070532;28;20048;-76
2022/01/17 10:14:01;;;;;;;30.45;3.20;;;8.30;99.90;;;;;;5052817;28;20067;-81
2022/01/17 10:16:29;;;;;;;25.45;3.17;;;8.30;99.90;;;;;;5070107;28;20488;-70
2022/01/17 10:19:03;;;;;;;19.13;3.22;;;8.40;99.90;;;;;;5067022;28;20044;-75
2022/01/17 10:21:41;;;;;;;26.35;3.17;;;8.40;99.90;;;;;;5069074;28;20119;-70
2022/01/17 10:34:57;;;;;;;24.80;3.20;;;8.70;99.90;;;;;;5065897;28;20056;-78
2022/01/17 10:37:25;;;;;;;24.02;3.10;;;8.80;99.90;;;;;;5069522;28;20040;-78
2022/01/17 10:39:59;;;;;;;24.30;3.22;;;8.80;99.90;;;;;;5054292;28;20076;-78
2022/01/17 10:42:28;;;;;;;23.95;3.00;;;8.90;99.90;;;;;;5055137;28;20045;-77
2022/01/17 10:44:56;;;;;;;21.33;3.15;;;8.90;99.90;;;;;;5069640;28;20040;-78
2022/01/17 10:47:25;;;;;;;19.45;2.63;;;8.90;99.90;;;;;;5070480;28;20049;-70
2022/01/17 10:49:56;;;;;;;28.55;3.35;;;9.00;99.90;;;;;;5073897;28;20056;-78
2022/01/17 10:52:35;;;;;;;23.15;3.00;;;9.00;99.90;;;;;;5073180;28;20476;-77
2022/01/17 10:55:10;;;;;;;23.00;3.15;;;9.00;99.90;;;;;;5072839;28;20123;-78
2022/01/17 10:57:40;;;;;;;25.13;3.40;;;9.10;99.90;;;;;;5074113;28;20071;-70
2022/01/17 11:00:18;;;;;;;24.23;3.17;;;9.20;99.90;;;;;;5056705;28;20048;-71
2022/01/17 11:02:51;;;;;;;19.77;2.97;;;9.30;99.90;;;;;;5073529;28;20120;-69
2022/01/17 11:05:19;;;;;;;20.55;2.75;;;9.40;99.90;;;;;;5057083;28;20044;-69
2022/01/17 11:07:48;;;;;;;29.27;3.83;;;9.50;99.90;;;;;;5072346;28;20048;-71
2022/01/17 11:10:27;;;;;;;29.75;3.70;;;9.60;99.90;;;;;;5073520;28;20056;-78
2022/01/17 11:12:55;;;;;;;20.33;3.83;;;9.60;99.90;;;;;;5073242;28;20041;-78
2022/01/17 11:15:22;;;;;;;33.15;4.63;;;9.60;99.90;;;;;;5055803;28;20049;-78
2022/01/17 11:17:52;;;;;;;25.40;3.78;;;9.60;99.90;;;;;;5073188;28;20032;-69
2022/01/17 11:20:25;;;;;;;23.02;3.75;;;9.60;99.90;;;;;;5073500;28;20036;-70
2022/01/17 11:22:52;;;;;;;;;;;9.50;99.90;;;;;;5073296;28;20378;-78
2022/01/17 11:25:21;;;;;;;30.58;4.00;;;9.60;99.90;;;;;;5072802;28;20508;-77
2022/01/17 11:27:47;;;;;;;28.20;3.70;;;9.50;99.90;;;;;;5073061;28;20503;-70
2022/01/17 11:30:14;;;;;;;25.27;3.33;;;9.60;99.90;;;;;;5072567;28;20048;-70
2022/01/17 11:32:40;;;;;;;26.73;3.47;;;9.60;99.90;;;;;;5072918;28;20049;-78
2022/01/17 11:35:07;;;;;;;27.30;4.22;;;9.60;99.90;;;;;;5072707;28;20110;-70
2022/01/17 11:37:39;;;;;;;28.08;4.05;;;9.60;99.90;;;;;;5056084;28;20157;-78
2022/01/17 11:40:08;;;;;;;21.38;3.67;;;9.60;99.90;;;;;;5073296;28;20262;-77
2022/01/17 11:43:01;;;;;;;32.25;4.07;;;9.60;99.90;;;;;;5072527;28;20108;-77
2022/01/17 11:45:31;;;;;;;31.27;4.55;;;9.60;99.90;;;;;;5072907;28;20044;-69
2022/01/17 11:47:56;;;;;;;31.30;4.10;;;9.60;99.90;;;;;;5072477;28;20056;-78
2022/01/17 11:50:28;;;;;;;26.80;4.38;;;9.70;99.90;;;;;;5071945;28;20049;-69
2022/01/17 11:53:00;;;;;;;24.48;4.50;;;9.80;99.90;;;;;;5072357;28;20106;-78
2022/01/17 11:55:44;;;;;;;30.35;4.22;;;9.90;99.80;;;;;;5072587;28;20513;-72
2022/01/17 11:58:21;;;;;;;26.75;4.55;;;9.90;99.50;;;;;;5071473;28;20493;-77
2022/01/17 12:00:48;;;;;;;26.20;4.80;;;10.00;99.60;;;;;;5072632;28;20473;-69
2022/01/17 12:03:22;;;;;;;33.28;4.93;;;10.10;99.70;;;;;;5071834;28;20044;-79
2022/01/17 12:05:48;;;;;;;31.42;5.30;;;10.10;99.50;;;;;;5056039;28;20040;-69
2022/01/17 12:08:20;;;;;;;29.42;4.72;;;10.20;99.40;;;;;;5072227;28;20128;-76
2022/01/17 12:10:53;;;;;;;25.40;4.47;;;10.20;99.20;;;;;;5070499;28;20055;-70
2022/01/17 12:13:20;;;;;;;27.52;4.80;;;10.10;99.20;;;;;;5072649;28;20382;-77
2022/01/17 12:15:55;;;;;;;30.90;4.15;;;10.20;99.30;;;;;;5049583;28;20057;-70
2022/01/17 12:18:28;;;;;;;31.88;3.83;;;10.20;99.30;;;;;;5054720;28;20041;-77
2022/01/17 12:20:54;;;;;;;24.08;3.90;;;10.20;99.30;;;;;;5039295;28;20033;-78
2022/01/17 12:23:26;;;;;;;26.98;4.55;;;10.20;99.20;;;;;;5071532;28;20052;-76
2022/01/17 12:25:52;;;;;;;32.85;4.88;;;10.20;99.20;;;;;;5071041;28;20072;-78
2022/01/17 12:28:17;;;;;;;30.00;5.20;;;10.30;99.10;;;;;;5071307;28;20084;-76
2022/01/17 12:30:45;;;;;;;25.75;4.78;;;10.20;98.90;;;;;;5054665;28;20390;-70
2022/01/17 12:33:12;;;;;;;27.52;4.85;;;10.20;98.90;;;;;;5056171;28;20032;-78
2022/01/17 12:35:46;;;;;;;31.08;4.85;;;10.20;99.00;;;;;;5071589;28;20045;-78
2022/01/17 12:38:28;;;;;;;32.72;4.75;;;10.20;99.00;;;;;;5051080;28;20086;-78
2022/01/17 12:40:54;;;;;;;28.47;4.37;;;10.10;99.10;;;;;;5048571;28;20036;-78
2022/01/17 12:43:29;;;;;;;28.30;5.03;;;10.10;99.00;;;;;;5061674;28;20298;-78
2022/01/17 12:46:03;;;;;;;29.52;4.85;;;10.00;99.20;;;;;;5046534;28;20086;-78
2022/01/17 12:48:30;;;;;;;32.38;5.15;;;10.10;99.30;;;;;;5071243;28;20493;-70
2022/01/17 12:50:57;;;;;;;28.92;4.80;;;10.10;99.30;;;;;;5071031;28;20566;-78
2022/01/17 12:53:25;;;;;;;27.00;4.80;;;10.00;99.20;;;;;;5070906;28;20394;-77
2022/01/17 12:55:53;;;;;;;34.50;4.60;;;10.00;99.00;;;;;;5071475;28;20044;-79
2022/01/17 12:58:24;;;;;;;35.67;4.57;;;10.00;99.10;;;;;;5069071;28;20040;-79
2022/01/17 13:00:54;;;;;;;29.20;5.00;;;10.00;99.30;;;;;;5070669;28;20087;-78
2022/01/17 13:03:23;;;;;;;18.88;4.45;;;10.00;99.40;;;;;;5069089;28;20158;-78
2022/01/17 13:05:49;;;;;;;28.77;4.68;;;10.00;99.20;;;;;;5071079;28;20075;-78
2022/01/17 13:08:16;;;;;;;26.50;4.53;;;10.00;99.20;;;;;;5069144;28;20044;-82
2022/01/17 13:10:42;;;;;;;33.42;5.22;;;9.90;99.30;;;;;;5070163;28;20044;-71
2022/01/17 13:13:15;;;;;;;30.35;5.35;;;9.90;99.40;;;;;;5052843;28;20040;-78
2022/01/17 13:15:54;;;;;;;38.53;5.28;;;9.90;99.50;;;;;;5069741;28;20051;-77